TimeCST,TemperatureF,Dew PointF,Humidity,Sea Level PressureIn,VisibilityMPH,Wind Direction,Wind SpeedMPH,Gust SpeedMPH,PrecipitationIn,Events,Conditions,WindDirDegrees,DateUTC
6:00 AM,63,62,93,29.90,12,East,3.5,,,,Clear,80,2012-11-16 12:00:00
6:00 AM,62.6,60.8,94,29.88,-9999.0,East,3.5,-,N/A,,Clear,80,2012-11-16 12:00:00
7:00 AM,69.8,66.2,88,29.90,-9999.0,ENE,3.5,-,N/A,,Clear,70,2012-11-16 13:00:00
8:00 AM,78.8,68.0,69,29.92,-9999.0,Calm,Calm,-,N/A,,Clear,0,2012-11-16 14:00:00
9:00 AM,79,68,62,29.94,12,West,4.6,,,,Clear,280,2012-11-16 15:00:00
9:00 AM,78.8,68.0,69,29.93,-9999.0,West,4.6,-,N/A,,Clear,280,2012-11-16 15:00:00
10:00 AM,84.2,68.0,58,29.92,-9999.0,West,10.4,-,N/A,,Clear,280,2012-11-16 16:00:00
11:00 AM,86.0,66.2,51,29.90,-9999.0,West,5.8,-,N/A,,Clear,280,2012-11-16 17:00:00
12:00 PM,89,65,36,29.89,12,WNW,5.8,,,,,300,2012-11-16 18:00:00
12:00 PM,89.6,66.2,46,29.87,-9999.0,WNW,5.8,-,N/A,,Clear,300,2012-11-16 18:00:00
1:00 PM,89.6,62.6,40,29.86,6.2,WNW,6.9,-,N/A,,Partly Cloudy,300,2012-11-16 19:00:00
2:00 PM,89.6,62.6,40,29.83,6.2,SW,6.9,-,N/A,,Partly Cloudy,230,2012-11-16 20:00:00
3:00 PM,90,63,31,29.83,12,South,3.5,,,,Scattered Clouds,180,2012-11-16 21:00:00
3:00 PM,89.6,62.6,40,29.82,6.2,South,3.5,-,N/A,,Partly Cloudy,180,2012-11-16 21:00:00
4:00 PM,87.8,68.0,52,29.82,6.2,WSW,4.6,-,N/A,,Partly Cloudy,250,2012-11-16 22:00:00
5:00 PM,82.4,68.0,62,29.83,6.2,NNW,4.6,-,N/A,,Partly Cloudy,330,2012-11-16 23:00:00
6:00 PM,80,67,57,29.86,12,Calm,Calm,,,,,,2012-11-17 00:00:00
6:00 PM,80.6,68.0,65,29.85,-9999.0,Calm,Calm,-,N/A,,Clear,0,2012-11-17 00:00:00
7:00 PM,77.0,68.0,74,29.87,-9999.0,South,4.6,-,N/A,,Clear,180,2012-11-17 01:00:00
8:00 PM,75.2,68.0,78,29.88,-9999.0,South,4.6,-,N/A,,Clear,190,2012-11-17 02:00:00